createdAt,value
2017-04-25T00:00:22.811Z,0.48
2017-04-25T00:01:33.066Z,0.47
2017-04-25T00:02:43.326Z,0.45
2017-04-25T00:03:53.578Z,0.48
2017-04-25T00:05:03.832Z,0.44
2017-04-25T00:06:13.767Z,0.44
2017-04-25T00:07:24.015Z,0.52
2017-04-25T00:08:34.271Z,0.51
2017-04-25T00:09:44.210Z,0.48
2017-04-25T00:10:54.465Z,0.45
2017-04-25T00:12:04.727Z,0.45
2017-04-25T00:13:14.674Z,0.44
2017-04-25T00:14:24.926Z,0.45
2017-04-25T00:15:35.184Z,0.4
2017-04-25T00:16:45.121Z,0.47
2017-04-25T00:17:55.376Z,0.36
2017-04-25T00:19:05.625Z,0.45
2017-04-25T00:20:15.878Z,0.45
2017-04-25T00:21:26.129Z,0.44
2017-04-25T00:22:36.070Z,0.49
2017-04-25T00:23:46.352Z,0.56
2017-04-25T00:24:56.607Z,0.61
2017-04-25T00:26:06.877Z,0.59
2017-04-25T00:27:17.129Z,0.59
2017-04-25T00:28:27.388Z,0.58
2017-04-25T00:29:37.644Z,0.56
2017-04-25T00:30:47.893Z,0.63
2017-04-25T00:31:57.832Z,0.66
2017-04-25T00:33:08.084Z,0.55
2017-04-25T00:34:18.333Z,0.66
2017-04-25T00:35:27.964Z,0.71
2017-04-25T00:36:38.225Z,0.7
2017-04-25T00:37:48.476Z,0.7
2017-04-25T00:38:58.120Z,0.74
2017-04-25T00:40:08.060Z,0.67
2017-04-25T00:41:17.686Z,0.76
2017-04-25T00:42:27.939Z,0.71
2017-04-25T00:43:38.194Z,0.81
2017-04-25T00:44:48.447Z,0.82
2017-04-25T00:45:58.696Z,0.86
2017-04-25T00:47:08.317Z,0.85
2017-04-25T00:48:18.248Z,0.82
2017-04-25T00:49:28.507Z,0.82
2017-04-25T00:50:38.789Z,0.88
2017-04-25T00:51:49.039Z,0.88
2017-04-25T00:52:59.296Z,0.82
2017-04-25T00:54:09.556Z,0.88
2017-04-25T00:55:19.817Z,0.84
2017-04-25T00:56:30.073Z,0.81
2017-04-25T00:57:40.326Z,0.94
2017-04-25T00:58:50.581Z,0.96
2017-04-25T01:00:00.836Z,0.85
2017-04-25T01:01:10.773Z,0.85
2017-04-25T01:02:20.707Z,0.89
2017-04-25T01:03:30.964Z,0.84
2017-04-25T01:04:41.231Z,0.84
2017-04-25T01:05:51.480Z,0.81
2017-04-25T01:07:01.736Z,0.77
2017-04-25T01:08:11.991Z,0.84
2017-04-25T01:09:22.251Z,0.77
2017-04-25T01:10:32.762Z,0.76
2017-04-25T01:11:43.013Z,0.78
2017-04-25T01:12:52.642Z,0.71
2017-04-25T01:14:02.898Z,0.68
2017-04-25T01:15:13.151Z,0.67
2017-04-25T01:16:23.105Z,0.66
2017-04-25T01:17:33.358Z,0.71
2017-04-25T01:18:43.618Z,0.66
2017-04-25T01:19:53.865Z,0.64
2017-04-25T01:21:04.122Z,0.64
2017-04-25T01:22:14.382Z,0.66
2017-04-25T01:23:24.319Z,0.7
2017-04-25T01:24:34.571Z,0.64
2017-04-25T01:25:44.829Z,0.67
2017-04-25T01:26:55.081Z,0.64
2017-04-25T01:28:05.394Z,0.66
2017-04-25T01:29:15.650Z,0.76
2017-04-25T01:30:25.592Z,0.76
2017-04-25T01:31:35.839Z,0.74
2017-04-25T01:32:46.104Z,0.77
2017-04-25T01:33:56.358Z,0.67
2017-04-25T01:35:06.611Z,0.58
2017-04-25T01:36:16.860Z,0.56
2017-04-25T01:37:26.802Z,0.52
2017-04-25T01:38:37.050Z,0.56
2017-04-25T01:39:46.991Z,0.64
2017-04-25T01:40:57.245Z,0.52
2017-04-25T01:42:07.183Z,0.64
2017-04-25T01:43:17.121Z,0.58
2017-04-25T01:44:27.373Z,0.61
2017-04-25T01:45:37.628Z,0.59
2017-04-25T01:46:47.884Z,0.61
2017-04-25T01:47:58.175Z,0.59
2017-04-25T01:49:08.116Z,0.59
2017-04-25T01:50:18.061Z,0.44
2017-04-25T01:51:28.307Z,0.55
2017-04-25T01:52:38.250Z,0.61
2017-04-25T01:53:48.507Z,0.51
2017-04-25T01:54:58.762Z,0.51
2017-04-25T01:56:08.703Z,0.63
2017-04-25T01:57:18.957Z,0.51
2017-04-25T01:58:29.211Z,0.51
2017-04-25T01:59:39.144Z,0.49
2017-04-25T02:00:49.396Z,0.56
2017-04-25T02:01:59.653Z,0.55
2017-04-25T02:03:09.910Z,0.51
2017-04-25T02:04:19.850Z,0.55
2017-04-25T02:05:30.107Z,0.51
2017-04-25T02:06:40.393Z,0.61
2017-04-25T02:07:50.643Z,0.55
2017-04-25T02:09:01.198Z,0.49
2017-04-25T02:10:11.454Z,0.51
2017-04-25T02:11:21.398Z,0.64
2017-04-25T02:12:31.645Z,0.59
2017-04-25T02:13:41.906Z,0.64
2017-04-25T02:14:51.847Z,0.61
2017-04-25T02:16:02.092Z,0.61
2017-04-25T02:17:12.342Z,0.63
2017-04-25T02:18:22.285Z,0.59
2017-04-25T02:19:32.545Z,0.59
2017-04-25T02:20:42.800Z,0.66
2017-04-25T02:21:53.051Z,0.56
2017-04-25T02:23:03.307Z,0.59
2017-04-25T02:24:13.575Z,0.56
2017-04-25T02:25:23.828Z,0.51
2017-04-25T02:26:34.080Z,0.51
2017-04-25T02:27:44.346Z,0.52
2017-04-25T02:28:54.291Z,0.66
2017-04-25T02:30:04.233Z,0.61
2017-04-25T02:31:14.172Z,0.56
2017-04-25T02:32:24.422Z,0.58
2017-04-25T02:33:34.677Z,0.55
2017-04-25T02:34:44.618Z,0.64
2017-04-25T02:35:54.871Z,0.51
2017-04-25T02:37:05.131Z,0.56
2017-04-25T02:38:15.069Z,0.55
2017-04-25T02:39:25.324Z,0.64
2017-04-25T02:40:35.591Z,0.64
2017-04-25T02:41:45.530Z,0.61
2017-04-25T02:42:55.787Z,0.61
2017-04-25T02:44:06.050Z,0.61
2017-04-25T02:45:15.999Z,0.66
2017-04-25T02:46:26.254Z,0.67
2017-04-25T02:47:36.516Z,0.64
2017-04-25T02:48:46.770Z,0.74
2017-04-25T02:49:56.763Z,0.76
2017-04-25T02:51:07.014Z,0.68
2017-04-25T02:52:17.260Z,0.74
2017-04-25T02:53:27.511Z,0.7
2017-04-25T02:54:37.777Z,0.74
2017-04-25T02:55:48.037Z,0.76
2017-04-25T02:56:58.282Z,0.77
2017-04-25T02:58:08.533Z,0.68
2017-04-25T02:59:18.161Z,0.73
2017-04-25T03:00:28.417Z,0.74
2017-04-25T03:01:38.677Z,0.84
2017-04-25T03:02:48.926Z,0.82
2017-04-25T03:03:59.181Z,0.76
2017-04-25T03:05:09.436Z,0.85
2017-04-25T03:06:19.378Z,0.82
2017-04-25T03:07:29.634Z,0.85
2017-04-25T03:08:39.931Z,0.85
2017-04-25T03:09:50.186Z,0.85
2017-04-25T03:11:00.438Z,0.84
2017-04-25T03:12:10.377Z,0.88
2017-04-25T03:13:20.629Z,0.85
2017-04-25T03:14:30.878Z,0.78
2017-04-25T03:15:41.137Z,0.77
2017-04-25T03:16:51.070Z,0.84
2017-04-25T03:18:01.323Z,0.84
2017-04-25T03:19:11.579Z,0.81
2017-04-25T03:20:21.836Z,0.74
2017-04-25T03:21:31.777Z,0.85
2017-04-25T03:22:42.031Z,0.82
2017-04-25T03:23:52.290Z,0.85
2017-04-25T03:25:02.551Z,0.82
2017-04-25T03:26:12.797Z,0.78
2017-04-25T03:27:23.054Z,0.86
2017-04-25T03:28:33.306Z,0.84
2017-04-25T03:29:43.563Z,0.86
2017-04-25T03:30:53.505Z,0.91
2017-04-25T03:32:03.760Z,0.86
2017-04-25T03:33:14.026Z,0.78
2017-04-25T03:34:24.275Z,0.84
2017-04-25T03:35:34.220Z,0.88
2017-04-25T03:36:44.476Z,0.88
2017-04-25T03:37:54.739Z,0.84
2017-04-25T03:39:04.989Z,0.94
2017-04-25T03:40:14.926Z,0.89
2017-04-25T03:41:25.178Z,0.92
2017-04-25T03:42:35.435Z,0.89
2017-04-25T03:43:45.698Z,0.94
2017-04-25T03:44:55.639Z,0.86
2017-04-25T03:46:05.575Z,0.91
2017-04-25T03:47:15.203Z,0.82
2017-04-25T03:48:25.455Z,0.91
2017-04-25T03:49:35.710Z,0.91
2017-04-25T03:50:45.965Z,0.89
2017-04-25T03:51:56.218Z,0.91
2017-04-25T03:53:06.475Z,0.94
2017-04-25T03:54:16.418Z,0.95
2017-04-25T03:55:26.666Z,0.92
2017-04-25T03:56:36.605Z,0.91
2017-04-25T03:57:46.863Z,0.95
2017-04-25T03:58:56.809Z,0.94
2017-04-25T04:00:07.062Z,0.89
2017-04-25T04:01:17.031Z,1
2017-04-25T04:02:27.288Z,1
2017-04-25T04:03:37.225Z,0.99
2017-04-25T04:04:47.484Z,1.06
2017-04-25T04:05:57.737Z,1.03
2017-04-25T04:07:07.992Z,1.07
2017-04-25T04:08:17.619Z,1.09
2017-04-25T04:09:27.887Z,1.13
2017-04-25T04:10:38.169Z,1.07
2017-04-25T04:11:48.114Z,1.1
2017-04-25T04:12:58.372Z,1.18
2017-04-25T04:14:08.631Z,1.18
2017-04-25T04:15:18.882Z,1.2
2017-04-25T04:16:29.137Z,1.13
2017-04-25T04:17:39.081Z,1.07
2017-04-25T04:18:49.340Z,1.09
2017-04-25T04:19:59.588Z,1.14
2017-04-25T04:21:09.534Z,1.22
2017-04-25T04:22:19.784Z,1.1
2017-04-25T04:23:29.716Z,1.24
2017-04-25T04:24:39.663Z,1.2
2017-04-25T04:25:49.917Z,1.14
2017-04-25T04:26:59.854Z,1.21
2017-04-25T04:28:10.112Z,1.14
2017-04-25T04:29:20.058Z,1.18
2017-04-25T04:30:30.316Z,1.24
2017-04-25T04:31:40.574Z,1.16
2017-04-25T04:32:50.835Z,1.22
2017-04-25T04:34:01.093Z,1.21
2017-04-25T04:35:11.350Z,1.16
2017-04-25T04:36:21.611Z,1.18
2017-04-25T04:37:31.868Z,1.14
2017-04-25T04:38:42.127Z,1.13
2017-04-25T04:39:52.387Z,1.21
2017-04-25T04:41:02.643Z,1.07
2017-04-25T04:42:12.927Z,1.16
2017-04-25T04:43:22.866Z,1.07
2017-04-25T04:44:33.119Z,1.24
2017-04-25T04:45:43.374Z,1.12
2017-04-25T04:46:53.622Z,1.16
2017-04-25T04:48:03.877Z,1.18
2017-04-25T04:49:13.820Z,1.1
2017-04-25T04:50:24.077Z,1.04
2017-04-25T04:51:34.329Z,1.09
2017-04-25T04:52:44.578Z,1.09
2017-04-25T04:53:54.833Z,1.04
2017-04-25T04:55:05.127Z,1.09
2017-04-25T04:56:15.415Z,1.03
2017-04-25T04:57:25.690Z,1.1
2017-04-25T04:58:35.971Z,1.09
2017-04-25T04:59:46.223Z,1.04
2017-04-25T05:00:56.477Z,1.13
2017-04-25T05:02:06.734Z,1.13
2017-04-25T05:03:16.996Z,1.1
2017-04-25T05:04:27.253Z,1.16
2017-04-25T05:05:37.505Z,1.18
2017-04-25T05:06:47.761Z,1.12
2017-04-25T05:07:58.018Z,1.16
2017-04-25T05:09:08.278Z,1.12
2017-04-25T05:10:18.540Z,1.22
2017-04-25T05:11:28.799Z,1.24
2017-04-25T05:12:39.055Z,1.21
2017-04-25T05:13:49.321Z,1.16
2017-04-25T05:14:59.576Z,1.21
2017-04-25T05:16:09.826Z,1.12
2017-04-25T05:17:20.082Z,1.18
2017-04-25T05:18:30.338Z,1.13
2017-04-25T05:19:40.593Z,1.24
2017-04-25T05:20:50.849Z,1.24
2017-04-25T05:22:01.098Z,1.27
2017-04-25T05:23:11.352Z,1.21
2017-04-25T05:24:21.611Z,1.22
2017-04-25T05:25:31.867Z,1.27
2017-04-25T05:26:41.808Z,1.27
2017-04-25T05:27:52.063Z,1.2
2017-04-25T05:29:02.323Z,1.18
2017-04-25T05:30:12.578Z,1.27
2017-04-25T05:31:22.826Z,1.21
2017-04-25T05:32:33.073Z,1.18
2017-04-25T05:33:43.325Z,1.24
2017-04-25T05:34:53.583Z,1.27
2017-04-25T05:36:03.525Z,1.25
2017-04-25T05:37:13.780Z,1.24
2017-04-25T05:38:24.028Z,1.32
2017-04-25T05:39:33.967Z,1.39
2017-04-25T05:40:44.226Z,1.32
2017-04-25T05:41:54.494Z,1.42
2017-04-25T05:43:04.442Z,1.42
2017-04-25T05:44:14.689Z,1.49
2017-04-25T05:45:24.934Z,1.5
2017-04-25T05:46:35.215Z,1.52
2017-04-25T05:47:45.466Z,1.53
2017-04-25T05:48:55.725Z,1.6
2017-04-25T05:50:05.974Z,1.6
2017-04-25T05:51:15.913Z,1.6
2017-04-25T05:52:26.177Z,1.63
2017-04-25T05:53:36.439Z,1.6
2017-04-25T05:54:46.706Z,1.66
2017-04-25T05:55:56.654Z,1.66
2017-04-25T05:57:06.599Z,1.71
2017-04-25T05:58:16.536Z,1.74
2017-04-25T05:59:26.795Z,1.71
2017-04-25T06:00:36.745Z,1.71
2017-04-25T06:01:46.698Z,1.76
2017-04-25T06:02:56.962Z,1.81
2017-04-25T06:04:07.249Z,1.79
2017-04-25T06:05:16.879Z,1.85
2017-04-25T06:06:27.134Z,1.85
2017-04-25T06:07:37.392Z,1.84
2017-04-25T06:08:47.650Z,1.88
2017-04-25T06:09:57.935Z,1.85
2017-04-25T06:11:07.566Z,1.89
2017-04-25T06:12:16.877Z,1.88
2017-04-25T06:13:27.124Z,1.95
2017-04-25T06:14:37.386Z,1.89
2017-04-25T06:15:47.660Z,1.95
2017-04-25T06:16:57.917Z,1.89
2017-04-25T06:18:08.175Z,2.01
2017-04-25T06:19:17.839Z,2
2017-04-25T06:20:28.098Z,1.97
2017-04-25T06:21:38.348Z,1.98
2017-04-25T06:22:48.598Z,1.98
2017-04-25T06:23:58.847Z,2.05
2017-04-25T06:25:08.789Z,2.01
2017-04-25T06:26:18.725Z,2.08
2017-04-25T06:27:28.667Z,2.05
2017-04-25T06:28:38.912Z,2.12
2017-04-25T06:29:49.173Z,2.16
2017-04-25T06:30:59.111Z,2.21
2017-04-25T06:32:09.363Z,2.22
2017-04-25T06:33:19.620Z,2.28
2017-04-25T06:34:29.567Z,2.22
2017-04-25T06:35:39.831Z,2.19
2017-04-25T06:36:50.087Z,2.19
2017-04-25T06:38:00.344Z,2.32
2017-04-25T06:39:09.974Z,2.34
2017-04-25T06:40:20.230Z,2.32
2017-04-25T06:41:30.167Z,2.34
2017-04-25T06:42:40.423Z,2.37
2017-04-25T06:43:53.058Z,2.4
2017-04-25T06:45:03.316Z,2.41
2017-04-25T06:46:13.569Z,2.36
2017-04-25T06:47:23.525Z,2.36
2017-04-25T06:48:33.780Z,2.4
2017-04-25T06:49:44.042Z,2.41
2017-04-25T06:50:54.291Z,2.36
2017-04-25T06:52:04.554Z,2.4
2017-04-25T06:53:14.809Z,2.39
2017-04-25T06:54:25.056Z,2.47
2017-04-25T06:55:35.312Z,2.55
2017-04-25T06:56:45.253Z,2.61
2017-04-25T06:57:55.538Z,2.62
2017-04-25T06:59:05.482Z,2.77
2017-04-25T07:00:15.736Z,2.72
2017-04-25T07:01:25.991Z,2.83
2017-04-25T07:02:35.927Z,2.85
2017-04-25T07:03:46.188Z,2.9
2017-04-25T07:04:56.449Z,2.91
2017-04-25T07:06:06.699Z,2.95
2017-04-25T07:07:16.636Z,2.9
2017-04-25T07:08:26.889Z,2.91
2017-04-25T07:09:37.179Z,2.85
2017-04-25T07:10:47.122Z,2.88
2017-04-25T07:11:57.382Z,2.91
2017-04-25T07:13:07.643Z,2.97
2017-04-25T07:14:17.599Z,2.91
2017-04-25T07:15:27.859Z,2.97
2017-04-25T07:16:38.115Z,3
2017-04-25T07:17:48.058Z,3.03
2017-04-25T07:18:57.996Z,3.15
2017-04-25T07:20:07.945Z,3.21
2017-04-25T07:21:17.888Z,3.26
2017-04-25T07:22:27.825Z,3.31
2017-04-25T07:23:38.083Z,3.27
2017-04-25T07:24:48.021Z,3.22
2017-04-25T07:25:58.278Z,3.33
2017-04-25T07:27:08.539Z,3.46
2017-04-25T07:28:18.796Z,3.43
2017-04-25T07:29:29.061Z,3.5
2017-04-25T07:30:39.324Z,3.58
2017-04-25T07:31:49.270Z,3.55
2017-04-25T07:32:59.525Z,3.77
2017-04-25T07:34:09.156Z,3.76
2017-04-25T07:35:19.099Z,3.71
2017-04-25T07:36:29.353Z,3.76
2017-04-25T07:37:39.611Z,3.66
2017-04-25T07:38:49.871Z,3.74
2017-04-25T07:40:00.128Z,3.74
2017-04-25T07:41:10.071Z,3.71
2017-04-25T07:42:20.331Z,3.7
2017-04-25T07:43:30.613Z,3.66
2017-04-25T07:44:40.872Z,3.61
2017-04-25T07:45:51.128Z,3.74
2017-04-25T07:47:01.384Z,3.76
2017-04-25T07:48:11.325Z,3.81
2017-04-25T07:49:21.583Z,3.94
2017-04-25T07:50:31.526Z,3.78
2017-04-25T07:51:41.780Z,3.84
2017-04-25T07:52:52.037Z,3.77
2017-04-25T07:54:02.294Z,3.91
2017-04-25T07:55:12.546Z,3.88
2017-04-25T07:56:22.495Z,3.92
2017-04-25T07:57:32.130Z,3.99
2017-04-25T07:58:42.389Z,4.13
2017-04-25T07:59:52.646Z,3.91
2017-04-25T08:01:02.903Z,3.88
2017-04-25T08:02:12.848Z,3.94
2017-04-25T08:03:22.796Z,3.76
2017-04-25T08:04:33.053Z,3.88
2017-04-25T08:05:43.000Z,3.85
2017-04-25T08:06:53.262Z,4.12
2017-04-25T08:08:03.212Z,4.06
2017-04-25T08:09:12.851Z,4.18
2017-04-25T08:10:22.804Z,4.21
2017-04-25T08:11:32.747Z,4.27
2017-04-25T08:12:43.008Z,4.28
2017-04-25T08:13:53.270Z,4.22
2017-04-25T08:15:03.537Z,4.39
2017-04-25T08:16:13.790Z,4.31
2017-04-25T08:17:24.046Z,4.34
2017-04-25T08:18:34.300Z,4.46
2017-04-25T08:19:44.242Z,4.4
2017-04-25T08:20:54.200Z,4.3
2017-04-25T08:22:04.457Z,4.27
2017-04-25T08:23:14.396Z,4.43
2017-04-25T08:24:24.650Z,4.5
2017-04-25T08:25:34.596Z,4.4
2017-04-25T08:26:44.846Z,4.43
2017-04-25T08:27:55.117Z,4.3
2017-04-25T08:29:05.074Z,4.38
2017-04-25T08:30:14.710Z,4.43
2017-04-25T08:31:24.962Z,4.43
2017-04-25T08:32:34.914Z,4.49
2017-04-25T08:33:45.176Z,4.68
2017-04-25T08:34:55.441Z,4.83
2017-04-25T08:36:05.699Z,4.94
2017-04-25T08:37:15.962Z,4.9
2017-04-25T08:38:25.907Z,5.05
2017-04-25T08:39:36.174Z,5.05
2017-04-25T08:40:46.430Z,5.13
2017-04-25T08:41:56.691Z,5.26
2017-04-25T08:43:06.960Z,5.22
2017-04-25T08:44:17.220Z,5.19
2017-04-25T08:45:27.475Z,5.34
2017-04-25T08:46:37.737Z,5.2
2017-04-25T08:47:48.009Z,5.18
2017-04-25T08:48:58.273Z,5.15
2017-04-25T08:50:07.902Z,5.16
2017-04-25T08:51:18.170Z,5.2
2017-04-25T08:52:28.442Z,5.31
2017-04-25T08:53:38.703Z,5.23
2017-04-25T08:54:48.956Z,5.38
2017-04-25T08:55:59.211Z,5.43
2017-04-25T08:57:09.474Z,5.55
2017-04-25T08:58:19.736Z,5.43
2017-04-25T08:59:29.995Z,5.34
2017-04-25T09:00:40.248Z,5.36
2017-04-25T09:01:50.509Z,5.22
2017-04-25T09:03:00.462Z,5.13
2017-04-25T09:04:10.726Z,5.16
2017-04-25T09:05:20.669Z,5
2017-04-25T09:06:30.922Z,5.13
2017-04-25T09:07:41.187Z,5.16
2017-04-25T09:08:50.826Z,5.22
2017-04-25T09:10:01.092Z,5.18
2017-04-25T09:11:11.348Z,5.19
2017-04-25T09:12:21.615Z,5.34
2017-04-25T09:13:31.557Z,5.37
2017-04-25T09:14:41.826Z,5.52
2017-04-25T09:15:51.774Z,5.54
2017-04-25T09:17:02.049Z,5.4
2017-04-25T09:18:11.994Z,5.43
2017-04-25T09:19:21.943Z,5.41
2017-04-25T09:20:32.201Z,5.54
2017-04-25T09:21:42.463Z,5.72
2017-04-25T09:22:52.720Z,5.81
2017-04-25T09:24:02.984Z,5.84
2017-04-25T09:25:13.259Z,5.81
2017-04-25T09:26:23.525Z,5.77
2017-04-25T09:27:33.782Z,5.8
2017-04-25T09:28:44.043Z,5.73
2017-04-25T09:29:53.993Z,5.67
2017-04-25T09:31:04.252Z,5.72
2017-04-25T09:32:14.529Z,5.77
2017-04-25T09:33:24.797Z,5.67
2017-04-25T09:34:35.057Z,5.51
2017-04-25T09:35:44.382Z,5.55
2017-04-25T09:36:54.636Z,5.55
2017-04-25T09:38:04.901Z,5.65
2017-04-25T09:39:14.852Z,5.7
2017-04-25T09:40:24.804Z,5.7
2017-04-25T09:41:35.061Z,5.83
2017-04-25T09:42:45.005Z,5.87
2017-04-25T09:43:54.952Z,5.94
2017-04-25T09:45:04.894Z,6.01
2017-04-25T09:46:15.162Z,6.01
2017-04-25T09:47:25.422Z,5.99
2017-04-25T09:48:35.686Z,5.97
2017-04-25T09:49:45.637Z,5.97
2017-04-25T09:50:55.596Z,5.95
2017-04-25T09:52:05.854Z,6.06
2017-04-25T09:53:15.805Z,6.07
2017-04-25T09:54:26.072Z,6.15
2017-04-25T09:55:36.339Z,6.29
2017-04-25T09:56:46.283Z,6.36
2017-04-25T09:57:56.546Z,6.44
2017-04-25T09:59:06.813Z,6.44
2017-04-25T10:00:17.100Z,6.52
2017-04-25T10:01:27.365Z,6.6
2017-04-25T10:02:37.311Z,6.62
2017-04-25T10:03:47.575Z,6.57
2017-04-25T10:04:57.837Z,6.57
2017-04-25T10:06:08.098Z,6.87
2017-04-25T10:07:18.035Z,6.87
2017-04-25T10:08:28.295Z,7.11
2017-04-25T10:09:38.571Z,7.21
2017-04-25T10:10:48.523Z,7.25
2017-04-25T10:11:58.467Z,7.26
2017-04-25T10:13:08.410Z,7.36
2017-04-25T10:14:19.200Z,7.39
2017-04-25T10:15:29.151Z,7.39
2017-04-25T10:16:39.413Z,7.22
2017-04-25T10:17:49.674Z,7.19
2017-04-25T10:18:59.938Z,7.29
2017-04-25T10:20:10.247Z,7.5
2017-04-25T10:21:20.191Z,7.37
2017-04-25T10:22:30.452Z,7.37
2017-04-25T10:23:40.715Z,7.62
2017-04-25T10:24:50.978Z,7.62
2017-04-25T10:26:01.176Z,7.61
2017-04-25T10:27:11.125Z,7.41
2017-04-25T10:28:21.071Z,7.29
2017-04-25T10:29:31.028Z,7.25
2017-04-25T10:30:41.313Z,7.26
2017-04-25T10:31:51.570Z,7.14
2017-04-25T10:33:01.832Z,7.19
2017-04-25T10:34:12.097Z,7.11
2017-04-25T10:35:22.367Z,7.15
2017-04-25T10:36:32.629Z,7.23
2017-04-25T10:37:42.898Z,7.4
2017-04-25T10:38:53.163Z,7.23
2017-04-25T10:40:03.114Z,7.28
2017-04-25T10:41:13.062Z,7.28
2017-04-25T10:42:23.326Z,7.26
2017-04-25T10:43:33.588Z,7.1
2017-04-25T10:44:43.875Z,7.22
2017-04-25T10:45:54.156Z,7.14
2017-04-25T10:47:04.112Z,7.26
2017-04-25T10:48:14.465Z,7.37
2017-04-25T10:49:24.744Z,7.44
2017-04-25T10:50:35.011Z,7.25
2017-04-25T10:51:44.958Z,7.18
2017-04-25T10:52:54.594Z,7.29
2017-04-25T10:54:04.867Z,7.32
2017-04-25T10:55:14.505Z,7.39
2017-04-25T10:56:24.766Z,7.32
2017-04-25T10:57:35.031Z,7.29
2017-04-25T10:58:44.977Z,7.39
2017-04-25T10:59:55.239Z,7.56
2017-04-25T11:01:05.503Z,7.67
2017-04-25T11:02:15.460Z,7.64
2017-04-25T11:03:25.726Z,7.58
2017-04-25T11:04:35.994Z,7.61
2017-04-25T11:05:45.949Z,7.69
2017-04-25T11:06:55.890Z,7.72
2017-04-25T11:08:06.149Z,7.78
2017-04-25T11:09:16.103Z,7.93
2017-04-25T11:10:26.052Z,8.01
2017-04-25T11:11:36.316Z,8.23
2017-04-25T11:12:46.273Z,8.06
2017-04-25T11:13:56.217Z,8.06
2017-04-25T11:15:06.482Z,8.03
2017-04-25T11:16:16.433Z,7.98
2017-04-25T11:17:26.380Z,8.13
2017-04-25T11:18:36.659Z,8.2
2017-04-25T11:19:46.922Z,8.24
2017-04-25T11:20:57.179Z,8.24
2017-04-25T11:22:07.448Z,8.38
2017-04-25T11:23:17.130Z,8.28
2017-04-25T11:24:27.395Z,8.11
2017-04-25T11:25:37.653Z,8.18
2017-04-25T11:26:47.654Z,8.09
2017-04-25T11:27:57.923Z,7.93
2017-04-25T11:29:08.191Z,8.16
2017-04-25T11:30:17.505Z,8.03
2017-04-25T11:31:27.791Z,8.06
2017-04-25T11:32:38.059Z,8.01
2017-04-25T11:33:48.015Z,8.16
2017-04-25T11:34:58.279Z,8.09
2017-04-25T11:36:08.226Z,8.2
2017-04-25T11:37:18.175Z,8.31
2017-04-25T11:38:28.439Z,8.14
2017-04-25T11:39:38.719Z,8.2
2017-04-25T11:40:48.988Z,8.08
2017-04-25T11:41:59.269Z,8.17
2017-04-25T11:43:08.905Z,8.05
2017-04-25T11:44:19.174Z,8.17
2017-04-25T11:45:29.433Z,8.18
2017-04-25T11:46:39.696Z,7.88
2017-04-25T11:47:49.956Z,7.77
2017-04-25T11:49:00.217Z,7.96
2017-04-25T11:50:10.489Z,7.91
2017-04-25T11:51:20.747Z,7.9
2017-04-25T11:52:30.697Z,7.67
2017-04-25T11:53:40.988Z,7.66
2017-04-25T11:54:50.935Z,7.61
2017-04-25T11:56:00.577Z,7.47
2017-04-25T11:57:10.844Z,7.55
2017-04-25T11:58:20.801Z,7.26
2017-04-25T11:59:31.061Z,7.47
2017-04-25T12:00:41.323Z,7.43
2017-04-25T12:01:51.275Z,7.51
2017-04-25T12:03:01.541Z,7.51
2017-04-25T12:04:11.816Z,7.61
2017-04-25T12:05:21.770Z,7.37
2017-04-25T12:06:32.032Z,7.22
2017-04-25T12:07:41.981Z,7.23
2017-04-25T12:08:51.930Z,7.26
2017-04-25T12:10:02.195Z,7.36
2017-04-25T12:11:12.467Z,7.37
2017-04-25T12:12:22.416Z,7.41
2017-04-25T12:13:32.683Z,7.26
2017-04-25T12:14:42.864Z,7.13
2017-04-25T12:15:53.124Z,7.15
2017-04-25T12:17:03.382Z,7.01
2017-04-25T12:18:13.025Z,7.07
2017-04-25T12:19:23.293Z,7.05
2017-04-25T12:20:33.553Z,7.21
2017-04-25T12:21:43.813Z,7.29
2017-04-25T12:22:54.075Z,7.26
2017-04-25T12:24:04.027Z,7.23
2017-04-25T12:25:14.292Z,7.23
2017-04-25T12:26:24.548Z,7.28
2017-04-25T12:27:34.808Z,7.23
2017-04-25T12:28:45.070Z,7.21
2017-04-25T12:29:55.041Z,7.28
2017-04-25T12:31:05.005Z,7.37
2017-04-25T12:32:15.261Z,7.26
2017-04-25T12:33:25.521Z,7.21
2017-04-25T12:34:35.787Z,7.07
2017-04-25T12:35:46.049Z,6.97
2017-04-25T12:36:55.993Z,7.05
2017-04-25T12:38:06.253Z,7.01
2017-04-25T12:39:16.511Z,7.08
2017-04-25T12:40:26.790Z,7.14
2017-04-25T12:41:37.062Z,7.19
2017-04-25T12:42:47.326Z,7.18
2017-04-25T12:43:57.591Z,7.19
2017-04-25T12:45:07.864Z,7.18
2017-04-25T12:46:18.129Z,7.21
2017-04-25T12:47:28.391Z,7.26
2017-04-25T12:48:38.653Z,7.28
2017-04-25T12:49:48.912Z,7.29
2017-04-25T12:50:59.181Z,7.28
2017-04-25T12:52:08.815Z,7.23
2017-04-25T12:53:19.074Z,7.15
2017-04-25T12:54:29.340Z,7.25
2017-04-25T12:55:39.606Z,7.33
2017-04-25T12:56:49.871Z,7.37
2017-04-25T12:58:00.137Z,7.37
2017-04-25T12:59:10.090Z,7.55
2017-04-25T13:00:20.031Z,7.46
2017-04-25T13:01:29.974Z,7.58
2017-04-25T13:02:40.233Z,7.59
2017-04-25T13:03:50.504Z,7.67
2017-04-25T13:05:00.775Z,7.56
2017-04-25T13:06:10.720Z,7.62
2017-04-25T13:07:20.672Z,7.66
2017-04-25T13:08:30.941Z,7.74
2017-04-25T13:09:40.897Z,7.8
2017-04-25T13:10:51.158Z,7.87
2017-04-25T13:12:01.429Z,7.95
2017-04-25T13:13:11.701Z,7.9
2017-04-25T13:14:21.967Z,7.93
2017-04-25T13:15:32.228Z,7.95
2017-04-25T13:16:42.495Z,8.01
2017-04-25T13:17:52.777Z,7.95
2017-04-25T13:19:03.065Z,7.88
2017-04-25T13:20:13.330Z,7.88
2017-04-25T13:21:22.960Z,7.85
2017-04-25T13:22:32.913Z,8.01
2017-04-25T13:23:43.197Z,8.23
2017-04-25T13:24:53.466Z,8.27
2017-04-25T13:26:03.415Z,8.44
2017-04-25T13:27:13.677Z,8.57
2017-04-25T13:28:23.622Z,8.71
2017-04-25T13:29:33.889Z,8.97
2017-04-25T13:30:44.179Z,8.97
2017-04-25T13:31:54.132Z,9.22
2017-04-25T13:33:03.466Z,9.47
2017-04-25T13:34:13.741Z,9.77
2017-04-25T13:35:24.007Z,9.97
2017-04-25T13:36:33.640Z,10.12
2017-04-25T13:37:43.917Z,10.53
2017-04-25T13:38:53.869Z,10.61
2017-04-25T13:40:04.137Z,10.49
2017-04-25T13:41:14.082Z,10.57
2017-04-25T13:42:23.086Z,10.86
2017-04-25T13:43:32.410Z,11.02
2017-04-25T13:44:42.674Z,11.45
2017-04-25T13:45:52.945Z,11.68
2017-04-25T13:47:03.221Z,11.56
2017-04-25T13:48:12.868Z,11.67
2017-04-25T13:49:23.147Z,12.23
2017-04-25T13:50:33.417Z,11.96
2017-04-25T13:51:43.049Z,11.93
2017-04-25T13:52:52.070Z,12.4
2017-04-25T13:54:01.708Z,12.58
2017-04-25T13:55:11.977Z,12.88
2017-04-25T13:56:22.247Z,13.08
2017-04-25T13:57:32.521Z,13.21
2017-04-25T13:58:42.793Z,13.13
2017-04-25T13:59:53.098Z,13.52
2017-04-25T14:01:03.386Z,13.58
2017-04-25T14:02:13.661Z,13.95
2017-04-25T14:03:22.693Z,13.89
2017-04-25T14:04:32.340Z,14.11
2017-04-25T14:05:42.616Z,13.83
2017-04-25T14:06:52.886Z,13.55
2017-04-25T14:08:03.177Z,13.67
2017-04-25T14:09:13.455Z,13.97
2017-04-25T14:10:23.753Z,14.16
2017-04-25T14:11:33.717Z,14.25
2017-04-25T14:12:43.366Z,13.65
2017-04-25T14:13:52.385Z,13.26
2017-04-25T14:15:02.038Z,12.95
2017-04-25T14:16:11.992Z,12.61
2017-04-25T14:17:22.274Z,12.5
2017-04-25T14:18:32.225Z,12.28
2017-04-25T14:19:42.493Z,11.97
2017-04-25T14:20:52.770Z,11.78
2017-04-25T14:22:02.448Z,11.68
2017-04-25T14:23:11.149Z,11.77
2017-04-25T14:24:19.855Z,11.63
2017-04-25T14:25:28.583Z,11.88
2017-04-25T14:26:37.599Z,11.56
2017-04-25T14:27:47.554Z,11.34
2017-04-25T14:28:57.827Z,11.18
2017-04-25T14:30:08.115Z,11.01
2017-04-25T14:31:18.071Z,10.71
2017-04-25T14:32:26.779Z,10.8
2017-04-25T14:33:36.104Z,10.51
2017-04-25T14:34:45.427Z,10.38
2017-04-25T14:35:54.756Z,10.39
2017-04-25T14:37:03.762Z,10.39
2017-04-25T14:38:13.400Z,10.3
2017-04-25T14:39:23.667Z,10.21
2017-04-25T14:40:33.927Z,9.8
2017-04-25T14:41:44.197Z,9.91
2017-04-25T14:42:54.474Z,9.81
2017-04-25T14:44:04.751Z,9.76
2017-04-25T14:45:14.704Z,9.97
2017-04-25T14:46:24.979Z,10.25
2017-04-25T14:47:35.248Z,10.55
2017-04-25T14:48:45.509Z,10.9
2017-04-25T14:49:55.778Z,11.26
2017-04-25T14:51:06.038Z,11.81
2017-04-25T14:52:16.302Z,11.78
2017-04-25T14:53:26.568Z,11.74
2017-04-25T14:54:36.835Z,11.49
2017-04-25T14:55:47.108Z,11.26
2017-04-25T14:56:57.374Z,11.1
2017-04-25T14:58:07.630Z,11.12
2017-04-25T14:59:17.583Z,11.33
2017-04-25T15:00:27.545Z,11.81
2017-04-25T15:01:37.493Z,11.88
2017-04-25T15:02:47.446Z,11.63
2017-04-25T15:03:57.718Z,11.91
2017-04-25T15:05:07.669Z,11.99
2017-04-25T15:06:17.624Z,12.15
2017-04-25T15:07:27.894Z,12.2
2017-04-25T15:08:38.160Z,12.37
2017-04-25T15:09:48.429Z,12.3
2017-04-25T15:10:58.697Z,12.02
2017-04-25T15:12:08.965Z,12.08
2017-04-25T15:13:18.921Z,12.29
2017-04-25T15:14:29.186Z,12.5
2017-04-25T15:15:39.135Z,12.47
2017-04-25T15:16:49.415Z,12.75
2017-04-25T15:17:59.684Z,12.62
2017-04-25T15:19:09.955Z,12.66
2017-04-25T15:20:20.221Z,12.95
2017-04-25T15:21:29.858Z,13.02
2017-04-25T15:22:40.128Z,12.55
2017-04-25T15:23:50.087Z,12.37
2017-04-25T15:25:00.361Z,11.65
2017-04-25T15:26:10.314Z,11.41
2017-04-25T15:27:20.580Z,11.26
2017-04-25T15:28:30.845Z,11.34
2017-04-25T15:29:40.486Z,11.53
2017-04-25T15:30:50.756Z,11.58
2017-04-25T15:32:01.027Z,11.81